Time;durP1;ratioP1;P1;durP2;ratioP2;P2;SDS_P1;SDS_P2;PMS_P1;PMS_P2;Temp;Humidity;BMP_temperature;BMP_pressure;BME280_temperature;BME280_humidity;BME280_pressure;Samples;Min_cycle;Max_cycle;Signal;HPM_P1;HPM_P2
2023/11/15 00:02:22;;;;;;;15.63;2.88;;;26.10;37.40;;;;;;5006150;28;20082;-65
2023/11/15 00:04:48;;;;;;;15.20;3.72;;;26.10;37.00;;;;;;5000203;28;20086;-66
2023/11/15 00:07:14;;;;;;;19.90;3.67;;;26.00;37.70;;;;;;5002512;28;20057;-64
2023/11/15 00:09:41;;;;;;;13.85;3.55;;;25.80;37.50;;;;;;4995643;28;20137;-64
2023/11/15 00:12:08;;;;;;;22.33;3.88;;;25.80;39.00;;;;;;5002808;28;20042;-64
2023/11/15 00:14:34;;;;;;;18.75;3.60;;;25.70;40.00;;;;;;5000254;28;20415;-61
2023/11/15 00:17:01;;;;;;;14.27;3.65;;;25.60;39.80;;;;;;4996752;28;20106;-62
2023/11/15 00:19:30;;;;;;;25.33;4.22;;;25.60;40.50;;;;;;4993437;28;20055;-63
2023/11/15 00:21:58;;;;;;;24.55;4.05;;;25.40;40.70;;;;;;4999348;28;20075;-64
2023/11/15 00:24:25;;;;;;;17.73;3.72;;;25.30;40.20;;;;;;5002315;28;20134;-66
2023/11/15 00:26:51;;;;;;;21.08;3.92;;;25.20;40.70;;;;;;5000257;28;20053;-63
2023/11/15 00:29:18;;;;;;;16.30;3.65;;;25.10;39.40;;;;;;5003110;28;20065;-63
2023/11/15 00:31:44;;;;;;;28.77;3.65;;;25.00;40.00;;;;;;4999527;28;20072;-63
2023/11/15 00:34:10;;;;;;;22.38;3.92;;;24.90;40.50;;;;;;5003229;28;20054;-65
2023/11/15 00:36:44;;;;;;;23.02;3.40;;;24.80;41.00;;;;;;4997342;28;20055;-65
2023/11/15 00:39:11;;;;;;;24.75;4.00;;;24.70;41.60;;;;;;5001295;28;20069;-64
2023/11/15 00:41:40;;;;;;;24.77;4.30;;;24.60;41.60;;;;;;4999774;28;20125;-61
2023/11/15 00:44:07;;;;;;;27.77;4.28;;;24.40;41.60;;;;;;5002764;28;20061;-65
2023/11/15 00:46:37;;;;;;;29.27;4.45;;;24.30;41.90;;;;;;5001254;28;20510;-65
2023/11/15 00:49:03;;;;;;;28.45;4.05;;;24.30;42.10;;;;;;5000069;28;20541;-65
2023/11/15 00:51:30;;;;;;;32.42;5.10;;;24.10;42.60;;;;;;5000347;28;20418;-62
2023/11/15 00:53:57;;;;;;;32.03;5.18;;;24.00;42.20;;;;;;4999840;28;20110;-66
2023/11/15 00:59:09;;;;;;;34.85;4.97;;;23.80;43.30;;;;;;4998113;28;20073;-58
2023/11/15 01:01:36;;;;;;;46.90;5.47;;;23.70;44.00;;;;;;4999132;28;20122;-58
2023/11/15 01:04:05;;;;;;;47.38;6.72;;;23.60;44.50;;;;;;4995004;28;20712;-63
2023/11/15 01:06:32;;;;;;;42.33;7.30;;;23.60;44.40;;;;;;4995950;28;20072;-62
2023/11/15 01:08:58;;;;;;;50.67;7.22;;;23.50;44.60;;;;;;4992450;28;20159;-59
2023/11/15 01:11:28;;;;;;;47.08;6.78;;;23.40;45.00;;;;;;4996195;28;20428;-59
2023/11/15 01:13:55;;;;;;;51.13;8.85;;;23.30;45.80;;;;;;4998124;28;20075;-61
2023/11/15 01:16:24;;;;;;;46.25;7.10;;;23.30;45.40;;;;;;4997871;28;20091;-61
2023/11/15 01:18:53;;;;;;;53.08;7.70;;;23.30;45.00;;;;;;5000966;28;20114;-60
2023/11/15 01:21:19;;;;;;;48.75;7.95;;;23.20;45.10;;;;;;5001193;28;20070;-62
2023/11/15 01:23:46;;;;;;;42.75;7.47;;;23.00;45.40;;;;;;4994838;28;20125;-61
2023/11/15 01:26:13;;;;;;;45.13;7.63;;;23.00;45.60;;;;;;5003297;28;20062;-58
2023/11/15 01:28:40;;;;;;;48.53;8.05;;;22.90;45.80;;;;;;5000173;28;20496;-62
2023/11/15 01:31:07;;;;;;;59.13;7.90;;;22.90;46.10;;;;;;5001416;28;20419;-63
2023/11/15 01:33:33;;;;;;;56.38;8.20;;;22.90;46.40;;;;;;4997130;28;20725;-59
2023/11/15 01:35:59;;;;;;;68.72;8.02;;;22.80;46.70;;;;;;4999222;28;20101;-61
2023/11/15 01:38:26;;;;;;;55.60;8.35;;;22.80;46.40;;;;;;4995584;28;20603;-61
2023/11/15 01:40:53;;;;;;;88.88;10.60;;;22.70;46.80;;;;;;4998854;28;20142;-62
2023/11/15 01:43:19;;;;;;;59.60;8.80;;;22.70;47.30;;;;;;5000381;28;20148;-62
2023/11/15 01:45:50;;;;;;;60.65;8.43;;;22.60;47.50;;;;;;5002365;28;20067;-63
2023/11/15 01:48:17;;;;;;;67.38;9.55;;;22.60;47.70;;;;;;4995731;28;20514;-65
2023/11/15 01:50:45;;;;;;;74.57;9.20;;;22.50;48.10;;;;;;4997633;28;20056;-65
2023/11/15 01:53:12;;;;;;;54.45;9.27;;;22.40;48.60;;;;;;4997295;28;20055;-64
2023/11/15 01:55:39;;;;;;;57.58;8.82;;;22.40;48.20;;;;;;4998965;28;20076;-64
2023/11/15 01:58:07;;;;;;;64.82;9.50;;;22.30;48.00;;;;;;4998202;28;21568;-61
2023/11/15 02:00:34;;;;;;;56.53;9.85;;;22.20;48.80;;;;;;4998256;28;20062;-64
2023/11/15 02:03:01;;;;;;;87.90;10.80;;;22.20;48.60;;;;;;4999710;28;20138;-64
2023/11/15 02:05:28;;;;;;;83.15;17.10;;;22.20;50.00;;;;;;4999441;28;20077;-64
2023/11/15 02:07:54;;;;;;;65.68;10.95;;;22.10;49.60;;;;;;4997705;28;20437;-63
2023/11/15 02:10:21;;;;;;;89.80;12.60;;;22.00;49.00;;;;;;4998710;28;20174;-65
2023/11/15 02:12:48;;;;;;;79.78;12.93;;;22.00;49.70;;;;;;5000781;28;20137;-64
2023/11/15 02:15:17;;;;;;;90.43;13.73;;;21.90;49.50;;;;;;5010363;28;20066;-63
2023/11/15 02:17:48;;;;;;;66.18;12.30;;;21.90;49.80;;;;;;5000783;28;20143;-62
2023/11/15 02:20:18;;;;;;;86.25;12.80;;;21.80;49.60;;;;;;4996845;28;20083;-63
2023/11/15 02:22:47;;;;;;;82.82;13.18;;;21.70;50.10;;;;;;4998366;28;20082;-63
2023/11/15 02:25:14;;;;;;;86.30;12.75;;;21.70;50.80;;;;;;4998196;28;20165;-63
2023/11/15 02:27:41;;;;;;;76.03;13.07;;;21.60;51.40;;;;;;4994647;28;20080;-63
2023/11/15 02:30:08;;;;;;;87.63;14.38;;;21.50;50.80;;;;;;4998104;28;20127;-64
2023/11/15 02:32:39;;;;;;;82.85;13.98;;;21.50;50.70;;;;;;4996373;28;20155;-64
2023/11/15 02:35:10;;;;;;;91.47;15.50;;;21.40;51.00;;;;;;4997638;28;20157;-65
2023/11/15 02:37:37;;;;;;;91.80;15.32;;;21.30;51.10;;;;;;5000838;28;20081;-64
2023/11/15 02:40:09;;;;;;;82.72;17.10;;;21.30;51.40;;;;;;4999591;28;20076;-64
2023/11/15 02:42:35;;;;;;;81.45;16.13;;;21.20;50.80;;;;;;4998398;28;20124;-62
2023/11/15 02:45:02;;;;;;;85.03;15.23;;;21.20;51.60;;;;;;4994845;28;20076;-63
2023/11/15 02:47:28;;;;;;;80.65;15.25;;;21.20;51.80;;;;;;4996872;28;20106;-63
2023/11/15 02:49:55;;;;;;;102.72;15.18;;;21.10;52.00;;;;;;4996172;28;20097;-63
2023/11/15 02:52:21;;;;;;;73.75;14.68;;;21.10;52.20;;;;;;5002870;28;20073;-65
2023/11/15 02:54:48;;;;;;;77.95;14.48;;;21.10;52.50;;;;;;4995570;28;20455;-63
2023/11/15 02:57:15;;;;;;;88.38;14.55;;;21.00;52.30;;;;;;4997563;28;20383;-63
2023/11/15 02:59:42;;;;;;;82.85;15.52;;;21.00;52.40;;;;;;4997730;28;20552;-62
2023/11/15 03:02:08;;;;;;;85.50;15.77;;;21.00;52.80;;;;;;5000257;28;20580;-63
2023/11/15 03:04:34;;;;;;;74.75;14.73;;;20.90;53.00;;;;;;5003868;28;20079;-62
2023/11/15 03:07:01;;;;;;;82.93;15.43;;;20.90;53.30;;;;;;5002145;28;20068;-63
2023/11/15 03:09:27;;;;;;;94.53;16.33;;;20.90;53.90;;;;;;5004169;28;20127;-63
2023/11/15 03:11:54;;;;;;;106.97;15.88;;;20.80;55.30;;;;;;5002887;28;20409;-63
2023/11/15 03:14:21;;;;;;;99.13;17.00;;;20.80;54.50;;;;;;5003074;28;20649;-65
2023/11/15 03:16:47;;;;;;;89.03;16.98;;;20.80;53.90;;;;;;5004212;28;20095;-64
2023/11/15 03:19:15;;;;;;;103.03;16.65;;;20.70;54.70;;;;;;5002433;28;20073;-65
2023/11/15 03:21:41;;;;;;;113.45;16.92;;;20.70;55.20;;;;;;5003303;28;20111;-63
2023/11/15 03:24:08;;;;;;;146.45;20.52;;;20.60;55.80;;;;;;5003366;28;20084;-60
2023/11/15 03:26:35;;;;;;;125.13;17.88;;;20.50;55.60;;;;;;5002879;28;20085;-64
2023/11/15 03:29:02;;;;;;;122.85;18.60;;;20.50;55.40;;;;;;5001904;28;20088;-64
2023/11/15 03:31:30;;;;;;;100.40;18.02;;;20.40;55.30;;;;;;5001535;28;20116;-63
2023/11/15 03:33:57;;;;;;;97.05;16.50;;;20.40;55.30;;;;;;5004193;28;20069;-62
2023/11/15 03:36:23;;;;;;;97.72;15.93;;;20.30;55.70;;;;;;5006118;28;20099;-62
2023/11/15 03:38:50;;;;;;;109.18;16.67;;;20.30;56.30;;;;;;5002334;28;20080;-63
2023/11/15 03:41:16;;;;;;;92.78;15.60;;;20.20;56.60;;;;;;5000546;28;20070;-63
2023/11/15 03:43:43;;;;;;;92.15;15.20;;;20.20;56.70;;;;;;5003726;28;20086;-62
2023/11/15 03:46:10;;;;;;;87.38;15.45;;;20.10;56.80;;;;;;5000167;28;20122;-64
2023/11/15 03:48:36;;;;;;;83.53;13.73;;;20.10;56.90;;;;;;5003269;28;20099;-65
2023/11/15 03:51:03;;;;;;;90.32;14.40;;;20.00;57.00;;;;;;4999951;28;20110;-63
2023/11/15 03:53:30;;;;;;;90.32;14.38;;;20.00;56.90;;;;;;4998308;28;20582;-62
2023/11/15 03:55:57;;;;;;;76.88;13.70;;;20.00;57.60;;;;;;5001775;28;20479;-63
2023/11/15 03:58:23;;;;;;;71.80;13.75;;;19.90;57.00;;;;;;4999771;28;20579;-61
2023/11/15 04:00:49;;;;;;;87.65;14.13;;;19.90;57.00;;;;;;4999593;28;20115;-61
2023/11/15 04:03:17;;;;;;;75.13;13.90;;;19.90;56.50;;;;;;5001922;28;20092;-62
2023/11/15 04:05:43;;;;;;;73.75;13.20;;;19.90;57.70;;;;;;4999336;28;20639;-62
2023/11/15 04:08:10;;;;;;;81.43;14.30;;;19.80;57.40;;;;;;4999172;28;20073;-64
2023/11/15 04:10:37;;;;;;;78.03;14.02;;;19.80;56.90;;;;;;5000835;28;20407;-62
2023/11/15 04:13:03;;;;;;;89.63;14.65;;;19.80;57.00;;;;;;4996976;28;20084;-63
2023/11/15 04:15:30;;;;;;;82.75;14.95;;;19.80;57.90;;;;;;4999409;28;20538;-62
2023/11/15 04:17:56;;;;;;;82.13;14.93;;;19.80;58.00;;;;;;4995299;28;20512;-65
2023/11/15 04:20:23;;;;;;;79.65;14.65;;;19.80;57.60;;;;;;5002091;28;20106;-63
2023/11/15 04:22:49;;;;;;;87.78;16.25;;;19.80;57.80;;;;;;4994379;28;20544;-62
2023/11/15 04:25:15;;;;;;;83.93;15.27;;;19.70;57.80;;;;;;4998412;28;20077;-62
2023/11/15 04:27:42;;;;;;;89.18;15.75;;;19.70;57.80;;;;;;4997439;28;20085;-64
2023/11/15 04:30:09;;;;;;;91.43;18.13;;;19.70;58.20;;;;;;4994473;28;20145;-64
2023/11/15 04:32:36;;;;;;;88.15;19.40;;;19.70;58.20;;;;;;4996275;28;20076;-63
2023/11/15 04:35:03;;;;;;;106.53;19.08;;;19.60;58.50;;;;;;4992887;28;20085;-63
2023/11/15 04:37:30;;;;;;;100.75;19.55;;;19.70;58.20;;;;;;4998056;28;20073;-63
2023/11/15 04:39:56;;;;;;;104.03;20.30;;;19.60;57.90;;;;;;5001622;28;20472;-64
2023/11/15 04:42:24;;;;;;;93.53;20.15;;;19.60;58.20;;;;;;4999103;28;20086;-60
2023/11/15 04:44:51;;;;;;;110.57;21.98;;;19.60;59.00;;;;;;4996311;28;20193;-64
2023/11/15 04:47:18;;;;;;;119.30;37.72;;;19.50;58.40;;;;;;4999586;28;20112;-63
2023/11/15 04:49:45;;;;;;;126.65;35.08;;;19.50;58.50;;;;;;4993469;28;20143;-63
2023/11/15 04:52:12;;;;;;;121.28;36.75;;;19.50;58.60;;;;;;4993229;28;20110;-62
2023/11/15 04:54:38;;;;;;;127.38;39.47;;;19.40;58.80;;;;;;4997556;28;20085;-61
2023/11/15 04:57:05;;;;;;;103.70;26.98;;;19.40;58.40;;;;;;4994198;28;20432;-63
2023/11/15 04:59:31;;;;;;;102.70;24.42;;;19.40;58.20;;;;;;4992392;28;20550;-65
2023/11/15 05:01:58;;;;;;;98.88;24.85;;;19.40;58.80;;;;;;4992078;28;20081;-61
2023/11/15 05:04:25;;;;;;;104.00;24.33;;;19.40;58.80;;;;;;4997433;28;20100;-61
2023/11/15 05:06:54;;;;;;;110.88;23.65;;;19.40;59.70;;;;;;4994055;28;20081;-64
2023/11/15 05:09:22;;;;;;;123.40;24.52;;;19.40;59.30;;;;;;5002050;28;20102;-62
2023/11/15 05:11:49;;;;;;;99.18;22.55;;;19.40;59.50;;;;;;5004471;28;20082;-62
2023/11/15 05:14:16;;;;;;;140.75;25.30;;;19.40;59.70;;;;;;4996359;28;20081;-62
2023/11/15 05:16:42;;;;;;;149.65;26.63;;;19.40;60.00;;;;;;4995246;28;20078;-62
2023/11/15 05:19:09;;;;;;;127.65;26.50;;;19.30;59.40;;;;;;4999501;28;20442;-62
2023/11/15 05:21:35;;;;;;;106.43;24.55;;;19.30;59.90;;;;;;4998895;28;20085;-65
2023/11/15 05:24:02;;;;;;;118.47;24.15;;;19.30;59.50;;;;;;5001552;28;20081;-64
2023/11/15 05:26:28;;;;;;;114.40;24.55;;;19.30;59.60;;;;;;4996908;28;20082;-59
2023/11/15 05:28:55;;;;;;;103.47;23.75;;;19.30;60.30;;;;;;4992678;28;20092;-62
2023/11/15 05:31:22;;;;;;;115.22;24.98;;;19.30;59.90;;;;;;4997236;28;20158;-63
2023/11/15 05:33:48;;;;;;;109.22;23.80;;;19.30;59.80;;;;;;4992750;28;20074;-62
2023/11/15 05:36:15;;;;;;;91.40;22.17;;;19.30;60.30;;;;;;4994962;28;20081;-62
2023/11/15 05:38:42;;;;;;;99.78;24.52;;;19.30;59.80;;;;;;4995265;28;20097;-60
2023/11/15 05:41:08;;;;;;;127.85;28.70;;;19.30;59.70;;;;;;4994326;28;20136;-61
2023/11/15 05:43:35;;;;;;;118.18;25.17;;;19.20;60.00;;;;;;4994414;28;20107;-64
2023/11/15 05:46:02;;;;;;;123.70;26.08;;;19.20;60.10;;;;;;4995112;28;20583;-63
2023/11/15 05:48:28;;;;;;;121.88;26.45;;;19.30;60.50;;;;;;4996936;28;20148;-61
2023/11/15 05:50:55;;;;;;;103.70;27.00;;;19.20;60.20;;;;;;5000723;28;20069;-63
2023/11/15 05:53:21;;;;;;;113.43;24.45;;;19.20;59.90;;;;;;5001540;28;20070;-63
2023/11/15 05:55:48;;;;;;;106.38;23.92;;;19.20;60.00;;;;;;4996871;28;20136;-63
2023/11/15 05:58:14;;;;;;;115.88;24.02;;;19.30;60.70;;;;;;4996247;28;20106;-63
2023/11/15 06:00:41;;;;;;;104.13;24.50;;;19.30;59.90;;;;;;5000083;28;20084;-63
2023/11/15 06:03:07;;;;;;;103.10;24.70;;;19.30;59.60;;;;;;4997980;28;20079;-62
2023/11/15 06:05:33;;;;;;;101.88;24.80;;;19.20;59.30;;;;;;4996666;28;20156;-62
2023/11/15 06:08:00;;;;;;;100.32;24.10;;;19.30;59.30;;;;;;5001212;28;20109;-63
2023/11/15 06:10:26;;;;;;;104.03;25.17;;;19.30;59.10;;;;;;5002604;28;20088;-65
2023/11/15 06:12:56;;;;;;;99.88;23.52;;;19.30;59.20;;;;;;4999869;28;20543;-63
2023/11/15 06:15:23;;;;;;;91.90;24.77;;;19.30;60.00;;;;;;4995787;28;20074;-60
2023/11/15 06:17:51;;;;;;;113.93;26.90;;;19.20;60.00;;;;;;4997602;28;20079;-64
2023/11/15 06:20:18;;;;;;;106.82;24.98;;;19.20;60.40;;;;;;5001327;28;20128;-64
2023/11/15 06:22:46;;;;;;;100.43;26.45;;;19.20;60.50;;;;;;4998766;28;20128;-63
2023/11/15 06:25:21;;;;;;;171.32;107.05;;;19.20;60.30;;;;;;5002033;28;20090;-61
2023/11/15 06:27:48;;;;;;;103.40;35.45;;;19.20;62.00;;;;;;4999014;28;20098;-63
2023/11/15 06:30:16;;;;;;;88.40;27.83;;;19.20;61.00;;;;;;4996607;28;20148;-68
2023/11/15 06:32:44;;;;;;;96.13;26.30;;;19.10;60.80;;;;;;4998673;28;20635;-59
2023/11/15 06:35:17;;;;;;;81.53;25.73;;;19.10;60.70;;;;;;4994719;28;20538;-64
2023/11/15 06:37:48;;;;;;;85.60;26.67;;;19.10;60.80;;;;;;4996407;28;20099;-61
2023/11/15 06:40:16;;;;;;;99.78;29.30;;;19.10;61.70;;;;;;4997623;28;20116;-63
2023/11/15 06:42:43;;;;;;;90.07;26.65;;;19.10;61.20;;;;;;5001270;28;20078;-62
2023/11/15 06:45:10;;;;;;;98.50;25.13;;;19.20;61.10;;;;;;4998753;28;20074;-63
2023/11/15 06:47:36;;;;;;;109.30;27.60;;;19.20;61.30;;;;;;4997365;28;20118;-63
2023/11/15 06:50:07;;;;;;;106.35;31.48;;;19.10;61.30;;;;;;4993373;28;20136;-62
2023/11/15 06:52:33;;;;;;;110.82;28.98;;;19.10;61.60;;;;;;4994956;28;20552;-64
2023/11/15 06:55:03;;;;;;;88.82;26.27;;;19.10;61.30;;;;;;4996188;28;20168;-63
2023/11/15 06:57:29;;;;;;;95.93;24.05;;;19.10;60.90;;;;;;4995012;28;20078;-63
2023/11/15 06:59:56;;;;;;;90.00;23.88;;;19.10;60.60;;;;;;4991867;28;20075;-63
2023/11/15 07:02:22;;;;;;;79.90;22.15;;;19.20;61.10;;;;;;4995624;28;20177;-60
2023/11/15 07:04:49;;;;;;;78.75;20.38;;;19.20;60.50;;;;;;4997280;28;20077;-61
2023/11/15 07:07:15;;;;;;;78.47;21.73;;;19.10;59.60;;;;;;4997681;28;20085;-64
2023/11/15 07:09:41;;;;;;;87.22;22.02;;;19.10;59.60;;;;;;4996079;28;20135;-64
2023/11/15 07:12:09;;;;;;;81.78;22.23;;;19.10;60.20;;;;;;4998213;28;20452;-63
2023/11/15 07:14:36;;;;;;;98.70;24.02;;;19.10;60.60;;;;;;5003765;28;20087;-63
2023/11/15 07:17:02;;;;;;;90.70;23.13;;;19.20;61.30;;;;;;4998542;28;20078;-62
2023/11/15 07:19:29;;;;;;;81.03;22.30;;;19.20;62.20;;;;;;5000892;28;20166;-62
2023/11/15 07:21:56;;;;;;;80.43;23.67;;;19.20;62.20;;;;;;5001361;28;20477;-62
2023/11/15 07:24:23;;;;;;;73.93;21.15;;;19.20;62.80;;;;;;4999159;28;20080;-63
2023/11/15 07:26:50;;;;;;;80.55;22.27;;;19.10;62.50;;;;;;4999329;28;20565;-64
2023/11/15 07:29:21;;;;;;;88.78;21.70;;;19.10;62.20;;;;;;4998633;28;20100;-63
2023/11/15 07:31:52;;;;;;;73.10;22.98;;;19.10;62.20;;;;;;4999920;28;20084;-62
2023/11/15 07:34:23;;;;;;;98.35;23.58;;;19.10;63.00;;;;;;5001292;28;20509;-63
2023/11/15 07:36:50;;;;;;;84.55;23.20;;;19.10;63.20;;;;;;4995436;28;20086;-63
2023/11/15 07:39:18;;;;;;;95.60;23.70;;;19.10;63.20;;;;;;4994469;28;20116;-64
2023/11/15 07:41:45;;;;;;;101.38;25.27;;;19.00;63.40;;;;;;4994150;28;20106;-61
2023/11/15 07:44:15;;;;;;;97.72;25.40;;;19.00;63.60;;;;;;5001403;28;20124;-63
2023/11/15 07:46:42;;;;;;;106.65;24.92;;;18.90;62.70;;;;;;4999048;28;20078;-61
2023/11/15 07:49:12;;;;;;;112.30;26.75;;;18.90;63.00;;;;;;4997451;28;20101;-61
2023/11/15 07:51:39;;;;;;;108.90;25.58;;;18.90;62.70;;;;;;4999065;28;20084;-63
2023/11/15 07:54:05;;;;;;;90.55;24.30;;;19.00;63.10;;;;;;4999344;28;20109;-62
2023/11/15 07:56:32;;;;;;;108.93;26.08;;;19.00;63.60;;;;;;4999528;28;20164;-62
2023/11/15 07:58:58;;;;;;;103.25;26.25;;;19.00;63.40;;;;;;5001475;28;20497;-62
2023/11/15 08:01:25;;;;;;;106.00;26.08;;;19.00;62.70;;;;;;4995374;28;20136;-61
2023/11/15 08:03:53;;;;;;;91.97;26.40;;;19.00;62.20;;;;;;4993827;28;20551;-62
2023/11/15 08:06:20;;;;;;;113.93;27.05;;;19.10;62.10;;;;;;4998979;28;20180;-62
2023/11/15 08:08:47;;;;;;;116.38;28.50;;;19.10;62.30;;;;;;4993928;28;20584;-61
2023/11/15 08:11:15;;;;;;;114.22;29.35;;;19.10;62.70;;;;;;4992760;28;20075;-62
2023/11/15 08:13:44;;;;;;;92.82;28.67;;;19.10;62.90;;;;;;5005006;28;20144;-61
2023/11/15 08:16:12;;;;;;;135.25;31.25;;;19.10;62.70;;;;;;4995154;28;20075;-61
2023/11/15 08:18:44;;;;;;;135.35;33.58;;;19.10;62.30;;;;;;4999981;28;20462;-61
2023/11/15 08:21:12;;;;;;;133.50;34.63;;;19.10;62.40;;;;;;5000569;28;20138;-61
2023/11/15 08:23:39;;;;;;;133.48;36.58;;;19.10;62.40;;;;;;4995579;28;20110;-61
2023/11/15 08:26:07;;;;;;;154.63;35.58;;;19.10;61.40;;;;;;4992135;28;20085;-61
2023/11/15 08:28:34;;;;;;;140.13;37.28;;;19.10;60.70;;;;;;5004656;28;20148;-62
2023/11/15 08:31:00;;;;;;;146.75;37.10;;;19.20;61.10;;;;;;4997528;28;20109;-61
2023/11/15 08:33:27;;;;;;;133.45;36.70;;;19.20;61.90;;;;;;4996683;28;20072;-61
2023/11/15 08:35:54;;;;;;;143.15;37.65;;;19.20;61.70;;;;;;4997987;28;20077;-62
2023/11/15 08:38:24;;;;;;;175.70;41.90;;;19.20;61.50;;;;;;4996155;28;20090;-61
2023/11/15 08:40:55;;;;;;;157.85;38.38;;;19.20;60.60;;;;;;4998391;28;20491;-61
2023/11/15 08:43:22;;;;;;;153.80;38.63;;;19.20;60.40;;;;;;4996049;28;20085;-60
2023/11/15 08:45:49;;;;;;;139.35;36.30;;;19.20;60.20;;;;;;4995658;28;20537;-62
2023/11/15 08:48:17;;;;;;;135.50;34.85;;;19.20;59.40;;;;;;4995314;28;20110;-62
2023/11/15 08:50:47;;;;;;;144.10;36.60;;;19.20;59.30;;;;;;4992029;28;20617;-61
2023/11/15 08:53:16;;;;;;;157.02;34.95;;;19.20;59.30;;;;;;5010610;28;20484;-63
2023/11/15 08:55:46;;;;;;;122.10;32.45;;;19.20;59.70;;;;;;4995419;28;20081;-63
2023/11/15 08:58:14;;;;;;;137.00;32.47;;;19.20;59.60;;;;;;4996798;28;20081;-61
2023/11/15 09:00:43;;;;;;;108.60;28.80;;;19.20;59.80;;;;;;4992534;28;20144;-59
2023/11/15 09:03:11;;;;;;;106.53;25.40;;;19.20;59.40;;;;;;4998975;28;20493;-62
2023/11/15 09:05:39;;;;;;;102.82;24.90;;;19.20;59.10;;;;;;4996390;28;20091;-60
2023/11/15 09:08:05;;;;;;;86.63;23.23;;;19.20;58.80;;;;;;5000104;28;20070;-63
2023/11/15 09:10:32;;;;;;;89.45;21.60;;;19.20;58.00;;;;;;4997719;28;20094;-62
2023/11/15 09:12:58;;;;;;;94.38;21.15;;;19.30;57.30;;;;;;4994838;28;20550;-61
2023/11/15 09:15:25;;;;;;;73.72;19.55;;;19.20;57.20;;;;;;4993774;28;20103;-61
2023/11/15 09:17:51;;;;;;;68.05;17.90;;;19.30;56.70;;;;;;4999719;28;20093;-62
2023/11/15 09:20:25;;;;;;;66.38;16.88;;;19.30;56.70;;;;;;4992384;28;20087;-62
2023/11/15 09:22:57;;;;;;;58.05;17.08;;;19.30;56.00;;;;;;4995821;28;20092;-63
2023/11/15 09:25:26;;;;;;;60.55;16.63;;;19.30;56.10;;;;;;4995699;28;20553;-63
2023/11/15 09:28:02;;;;;;;56.40;15.27;;;19.30;55.90;;;;;;5001499;28;21318;-60
2023/11/15 09:30:31;;;;;;;58.22;14.10;;;19.30;56.50;;;;;;4993521;28;20088;-61
2023/11/15 09:32:59;;;;;;;64.13;15.00;;;19.10;55.40;;;;;;4993230;28;20117;-62
2023/11/15 09:35:28;;;;;;;61.55;15.45;;;19.10;55.60;;;;;;4993426;28;20534;-61
2023/11/15 09:37:58;;;;;;;56.33;16.08;;;19.10;55.20;;;;;;4997570;28;20081;-61
2023/11/15 09:40:26;;;;;;;62.90;15.30;;;19.10;55.50;;;;;;4995115;28;20546;-62
2023/11/15 09:42:54;;;;;;;62.83;16.27;;;19.00;56.40;;;;;;4993800;28;21728;-62
2023/11/15 09:45:23;;;;;;;75.72;16.67;;;18.90;56.60;;;;;;4996287;28;20654;-62
2023/11/15 09:47:54;;;;;;;64.28;16.40;;;18.90;56.80;;;;;;4993595;28;20107;-61
2023/11/15 09:50:26;;;;;;;85.55;31.52;;;18.80;56.80;;;;;;4999050;28;20097;-61
2023/11/15 09:52:56;;;;;;;53.10;16.00;;;18.70;57.00;;;;;;4998793;28;20080;-62
2023/11/15 09:55:26;;;;;;;56.22;15.40;;;18.60;56.90;;;;;;4991736;28;20172;-62
2023/11/15 09:57:54;;;;;;;60.15;15.55;;;18.60;56.80;;;;;;4991891;28;20606;-62
2023/11/15 10:00:22;;;;;;;59.20;15.73;;;18.50;57.00;;;;;;4999082;28;20105;-62
2023/11/15 10:02:52;;;;;;;51.83;14.82;;;18.50;57.40;;;;;;4995363;28;20589;-61
2023/11/15 10:05:23;;;;;;;61.90;15.77;;;18.50;58.00;;;;;;4997837;28;20122;-62
2023/11/15 10:08:15;;;;;;;57.42;16.08;;;18.40;58.60;;;;;;4994980;28;20078;-60
2023/11/15 10:10:47;;;;;;;66.90;15.73;;;18.30;58.60;;;;;;4995856;28;20105;-63
2023/11/15 10:13:20;;;;;;;55.15;15.15;;;18.20;58.50;;;;;;5000013;28;20554;-63
2023/11/15 10:15:47;;;;;;;60.10;14.80;;;18.10;58.90;;;;;;4993477;28;20442;-63
2023/11/15 10:18:15;;;;;;;55.70;15.43;;;18.10;59.20;;;;;;4997556;28;20076;-62
2023/11/15 10:20:43;;;;;;;66.82;15.52;;;18.10;59.30;;;;;;4998699;28;20156;-62
2023/11/15 10:23:10;;;;;;;57.03;14.68;;;18.00;59.30;;;;;;4997476;28;20410;-63
2023/11/15 10:26:00;;;;;;;57.55;14.85;;;18.00;60.10;;;;;;4990453;28;20070;-62
2023/11/15 10:28:35;;;;;;;67.32;14.25;;;17.90;60.40;;;;;;4991800;28;20148;-61
2023/11/15 10:31:07;;;;;;;59.03;14.88;;;17.90;60.90;;;;;;4995108;28;20740;-63
2023/11/15 10:33:37;;;;;;;59.35;16.05;;;17.80;60.10;;;;;;4998438;28;20212;-61
2023/11/15 10:36:21;;;;;;;56.70;15.90;;;17.80;59.80;;;;;;4993616;28;20451;-63
2023/11/15 10:38:51;;;;;;;70.53;15.90;;;17.70;61.50;;;;;;4995602;28;20082;-61
2023/11/15 10:41:20;;;;;;;59.58;16.08;;;17.60;60.70;;;;;;4994153;28;20189;-60
2023/11/15 10:43:51;;;;;;;62.38;15.40;;;17.60;61.10;;;;;;4994799;28;20570;-59
2023/11/15 10:46:28;;;;;;;60.38;16.58;;;17.60;60.80;;;;;;4994704;28;20084;-60
2023/11/15 10:48:59;;;;;;;61.35;15.50;;;17.60;60.30;;;;;;4992170;28;20108;-64
2023/11/15 10:51:48;;;;;;;69.38;16.35;;;17.40;60.10;;;;;;4991034;28;20547;-60
2023/11/15 10:54:17;;;;;;;72.25;16.60;;;17.50;60.90;;;;;;4990073;28;20132;-62
2023/11/15 10:56:44;;;;;;;60.85;16.00;;;17.50;61.30;;;;;;4999482;28;20547;-62
2023/11/15 10:59:13;;;;;;;55.28;15.30;;;17.40;60.50;;;;;;4991066;28;20384;-61
2023/11/15 11:01:41;;;;;;;49.35;15.13;;;17.30;59.80;;;;;;4992593;28;20454;-60
2023/11/15 11:04:10;;;;;;;68.57;15.73;;;17.30;60.00;;;;;;4993388;28;20118;-62
2023/11/15 11:06:50;;;;;;;46.90;15.00;;;17.30;61.20;;;;;;4997192;28;20510;-62
2023/11/15 11:09:50;;;;;;;61.85;16.33;;;17.20;61.80;;;;;;4993432;28;20199;-63
2023/11/15 11:12:22;;;;;;;55.05;15.07;;;17.20;61.40;;;;;;4991510;28;20082;-62
2023/11/15 11:15:12;;;;;;;58.88;16.23;;;17.10;61.20;;;;;;4999401;28;20079;-61
2023/11/15 11:17:42;;;;;;;52.08;15.38;;;17.10;61.40;;;;;;4992844;28;20098;-62
2023/11/15 11:20:27;;;;;;;57.30;16.50;;;17.10;62.00;;;;;;4997216;28;20145;-62
2023/11/15 11:23:11;;;;;;;49.50;16.55;;;17.00;61.90;;;;;;4996865;28;20539;-61
2023/11/15 11:25:41;;;;;;;59.70;15.48;;;16.90;62.20;;;;;;4997894;28;20586;-60
2023/11/15 11:28:12;;;;;;;64.18;16.10;;;16.90;61.60;;;;;;5000046;28;20089;-61
2023/11/15 11:30:39;;;;;;;53.03;14.95;;;16.90;59.80;;;;;;4994642;28;20105;-61
2023/11/15 11:33:18;;;;;;;58.58;17.20;;;17.00;60.30;;;;;;4999772;28;20443;-62
2023/11/15 11:35:46;;;;;;;70.20;18.48;;;17.00;60.30;;;;;;4997899;28;20070;-61
2023/11/15 11:38:47;;;;;;;76.93;21.45;;;17.00;59.90;;;;;;4997626;28;20074;-61
2023/11/15 11:41:14;;;;;;;69.80;20.40;;;17.00;59.80;;;;;;4936193;29;20127;-61
2023/11/15 11:43:41;;;;;;;61.42;21.27;;;17.00;59.70;;;;;;4937713;29;20095;-63
2023/11/15 11:46:15;;;;;;;73.60;21.60;;;17.00;59.70;;;;;;4941904;29;20092;-62
2023/11/15 11:48:42;;;;;;;68.10;21.40;;;16.90;59.60;;;;;;4935125;29;20893;-62
2023/11/15 11:51:09;;;;;;;72.93;20.15;;;16.90;59.80;;;;;;4935093;29;20142;-61
2023/11/15 11:53:40;;;;;;;76.60;21.25;;;16.80;60.50;;;;;;4944059;29;20624;-61
2023/11/15 11:56:08;;;;;;;69.97;20.75;;;16.90;60.50;;;;;;4935919;29;20544;-61
2023/11/15 11:58:36;;;;;;;64.03;20.02;;;16.90;60.50;;;;;;4940410;29;20502;-63
2023/11/15 12:01:07;;;;;;;68.05;22.17;;;16.90;60.90;;;;;;4936414;29;20141;-61
2023/11/15 12:03:35;;;;;;;78.43;19.60;;;16.80;60.80;;;;;;4933997;29;20088;-61
2023/11/15 12:06:09;;;;;;;65.30;21.63;;;16.90;60.80;;;;;;4937544;29;20079;-61
2023/11/15 12:08:50;;;;;;;63.38;21.38;;;16.90;61.10;;;;;;4935446;29;20614;-61
2023/11/15 12:11:23;;;;;;;63.50;21.95;;;16.90;61.70;;;;;;4934036;29;20084;-61
2023/11/15 12:13:51;;;;;;;75.50;21.92;;;16.80;61.20;;;;;;4939320;29;20098;-60
2023/11/15 12:16:19;;;;;;;72.55;22.83;;;16.80;60.60;;;;;;4953200;28;20087;-62
2023/11/15 12:19:07;;;;;;;65.82;20.98;;;16.70;60.20;;;;;;4998771;28;20437;-61
2023/11/15 12:21:37;;;;;;;78.45;21.90;;;16.70;59.90;;;;;;4994188;28;20080;-60
2023/11/15 12:24:06;;;;;;;73.85;20.48;;;16.60;60.10;;;;;;4993949;28;20072;-59
2023/11/15 12:26:45;;;;;;;61.40;19.00;;;16.60;60.10;;;;;;4991671;28;20553;-61
2023/11/15 12:29:19;;;;;;;59.72;18.13;;;16.60;59.70;;;;;;4996738;28;20082;-62
2023/11/15 12:31:55;;;;;;;48.65;16.33;;;16.70;58.80;;;;;;4998281;28;20080;-62
2023/11/15 12:34:22;;;;;;;55.55;17.20;;;16.70;58.10;;;;;;4996686;28;20600;-60
2023/11/15 12:36:50;;;;;;;49.30;15.23;;;16.80;57.60;;;;;;4994734;28;20165;-61